aviador You're here:

KTOI Decoded Metar

TROY in AL, USA
Report Time2017-11-21 05:53:00
UTC Time2017-11-21 06:05:04
Flight Rules vfr VFR
WindCalm
Visibility9999 m
Phenomena:N/A
Clouds:N/A
CeilingNone
Temp03°C (ISA -11)
Dew Point03°C (100% RH)
AAT1.5°C
QNH1020 hPa
Density Alt-1,109 ft
Elevation387 ft
Report Wrong Elevation
Raw Report
KTOI 210553Z AUTO 00000KT 10SM CLR 03/03 A3013 RMK AO2 SLP203
T00280028 10083 20022 401831017 58012=

Extra information for KTOI:More info

Metar Taf Metar & Taf Last 4 Metars F.Rules Stats Wind Profile Meteogram Temp Stats Airport Information Weather charts Add Link Nearby VenuesMetar ALERT Operation Metar Decoded Social comments

AIRNAV info for KTOI